Date,TemperatureHighF,TemperatureAvgF,TemperatureLowF,DewpointHighF,DewpointAvgF,DewpointLowF,HumidityHigh,HumidityAvg,HumidityLow,PressureMaxIn,PressureMinIn,WindSpeedMaxMPH,WindSpeedAvgMPH,GustSpeedMaxMPH,PrecipitationSumIn
2014-2-1,67.3,38.7,21.9,36.0,26.9,19.7,94,69,26,30.26,30.01,3,0,4,0.00
2014-2-2,49.1,37.4,24.4,47.5,35.6,22.9,98,93,76,30.14,29.98,6,0,6,0.02
2014-2-3,44.7,37.6,28.2,44.2,36.7,27.4,98,96,90,30.27,29.82,9,0,10,1.24
2014-2-4,47.1,37.4,27.7,42.9,35.2,27.2,98,92,80,30.34,29.95,6,0,10,0.10
2014-2-5,51.2,39.4,25.9,47.4,35.9,21.4,99,88,69,30.23,29.77,19,3,19,0.17
2014-2-6,33.8,27.6,23.2,23.7,20.6,17.6,86,75,61,30.40,30.22,10,1,10,0.00
2014-2-7,38.4,29.0,22.5,25.8,22.9,20.3,93,78,56,30.42,30.30,8,1,8,0.00
2014-2-8,38.7,31.7,23.5,33.0,28.3,21.8,94,87,72,30.31,30.18,7,0,7,0.00
2014-2-9,40.3,36.3,32.7,36.9,34.0,31.6,97,91,84,30.23,30.04,7,1,12,0.00
2014-2-10,33.0,29.2,21.1,31.9,26.2,19.0,97,88,78,30.30,30.11,4,0,4,0.02
2014-2-11,39.9,26.2,18.4,23.0,17.9,9.5,94,74,31,30.38,30.29,4,0,4,0.00
2014-2-12,30.1,23.2,18.6,23.2,18.3,15.8,94,82,56,30.36,29.96,4,0,4,0.00
2014-2-13,32.8,28.2,19.9,30.4,26.0,18.1,95,92,86,29.96,29.73,10,1,10,0.00
2014-2-14,45.2,33.2,15.0,34.5,27.7,13.3,96,81,57,29.91,29.67,13,1,13,0.41
2014-2-15,34.0,27.2,15.9,32.9,22.6,13.0,97,83,61,30.14,29.62,11,2,11,0.04
2014-2-16,41.7,30.7,18.8,31.3,25.3,15.5,94,81,63,30.25,30.11,11,1,11,0.06
2014-2-17,50.5,33.9,16.9,36.7,26.3,15.4,96,76,45,30.33,30.05,19,1,19,0.02
2014-2-18,55.5,41.2,30.5,37.7,31.1,23.7,93,71,30,30.27,30.04,7,2,10,0.00
2014-2-19,64.3,47.3,33.1,53.1,39.9,29.7,98,79,40,30.09,29.92,19,2,19,0.53
2014-2-20,71.2,55.7,35.5,53.0,44.5,33.0,92,68,48,30.11,29.76,24,3,24,0.00
2014-2-21,65.7,49.2,32.3,53.9,38.8,24.2,96,69,36,30.05,29.62,23,4,24,0.59
2014-2-22,59.6,40.2,26.4,33.1,25.5,16.3,95,63,20,30.23,30.05,11,1,11,0.00
2014-2-23,62.2,43.1,24.4,36.7,29.2,22.4,94,63,30,30.12,29.92,16,1,16,0.00
2014-2-24,47.3,36.2,22.4,36.0,23.2,12.4,88,64,27,30.18,30.00,13,2,13,0.00
2014-2-25,41.4,30.8,21.3,24.0,20.0,12.2,91,67,36,30.15,30.02,12,1,12,0.00
2014-2-26,33.5,27.0,16.1,24.6,19.3,13.2,90,73,51,30.06,29.89,6,1,9,0.00
2014-2-27,38.4,25.4,15.8,14.1,10.4,6.2,84,56,30,30.09,29.91,13,3,17,0.00
2014-2-28,51.3,30.5,11.8,20.4,15.2,9.4,91,59,27,30.27,30.09,8,1,10,0.00